Time;durP1;ratioP1;P1;durP2;ratioP2;P2;SDS_P1;SDS_P2;PMS_P1;PMS_P2;Temp;Humidity;BMP_temperature;BMP_pressure;BME280_temperature;BME280_humidity;BME280_pressure;Samples;Min_cycle;Max_cycle;Signal;HPM_P1;HPM_P2
2022/10/16 00:00:35;;;;;;;3.10;0.45;;;12.90;99.90;;;;;;4995778;28;20494;-86
2022/10/16 00:03:02;;;;;;;0.98;0.60;;;12.60;99.90;;;;;;4999583;28;20049;-86
2022/10/16 00:05:28;;;;;;;2.92;0.47;;;12.60;99.90;;;;;;5020469;28;20397;-86
2022/10/16 00:07:53;;;;;;;1.85;0.50;;;12.60;99.90;;;;;;5016938;28;20034;-86
2022/10/16 00:10:19;;;;;;;2.13;0.60;;;12.50;99.90;;;;;;4999976;28;20454;-86
2022/10/16 00:12:45;;;;;;;4.72;0.60;;;12.60;99.90;;;;;;4998803;28;20132;-86
2022/10/16 00:15:11;;;;;;;0.40;0.40;;;12.70;99.90;;;;;;5016257;28;20498;-86
2022/10/16 00:17:37;;;;;;;4.97;0.70;;;12.70;99.90;;;;;;5017120;28;20124;-87
2022/10/16 00:20:03;;;;;;;4.15;0.50;;;12.60;99.90;;;;;;5016849;28;20463;-85
2022/10/16 00:22:29;;;;;;;1.33;0.50;;;12.60;99.90;;;;;;5009536;28;20053;-86
2022/10/16 00:24:54;;;;;;;0.70;0.32;;;12.50;99.90;;;;;;5018783;28;20037;-86
2022/10/16 00:27:20;;;;;;;3.53;0.50;;;13.70;99.90;;;;;;5016470;28;20034;-87
2022/10/16 00:29:50;;;;;;;2.30;0.38;;;12.70;99.90;;;;;;4998917;28;20034;-86
2022/10/16 00:32:17;;;;;;;0.75;0.40;;;12.60;99.90;;;;;;5001466;28;20089;-85
2022/10/16 00:34:43;;;;;;;1.70;0.50;;;12.80;99.90;;;;;;5001901;28;20044;-85
2022/10/16 00:37:09;;;;;;;0.90;0.40;;;12.30;99.90;;;;;;4998536;28;20553;-86
2022/10/16 00:39:35;;;;;;;1.88;0.60;;;12.60;99.90;;;;;;4998719;28;20049;-85
2022/10/16 00:42:00;;;;;;;1.00;0.30;;;12.60;99.90;;;;;;5016817;28;20041;-86
2022/10/16 00:44:55;;;;;;;1.70;0.50;;;12.60;99.90;;;;;;4998453;28;20060;-86
2022/10/16 00:47:38;;;;;;;0.55;0.40;;;12.60;99.90;;;;;;5016563;28;20100;-86
2022/10/16 00:50:16;;;;;;;0.88;0.40;;;12.60;99.90;;;;;;4998360;28;20046;-86
2022/10/16 00:52:46;;;;;;;3.95;0.70;;;12.60;99.90;;;;;;5021005;28;20494;-86
2022/10/16 00:55:12;;;;;;;2.33;0.50;;;12.60;99.90;;;;;;5015324;28;20120;-86
2022/10/16 00:57:39;;;;;;;0.68;0.40;;;12.40;99.90;;;;;;5015353;28;20390;-86
2022/10/16 01:00:10;;;;;;;2.13;0.75;;;12.60;99.90;;;;;;4998625;28;20092;-86
2022/10/16 01:02:36;;;;;;;1.98;0.50;;;12.60;99.90;;;;;;5017867;28;20044;-86
2022/10/16 01:05:02;;;;;;;0.95;0.40;;;12.60;99.90;;;;;;4998077;28;20089;-86
2022/10/16 01:07:56;;;;;;;2.33;0.50;;;12.60;99.90;;;;;;4998689;28;20045;-87
2022/10/16 01:10:35;;;;;;;2.97;0.75;;;12.60;99.90;;;;;;4998058;28;20193;-85
2022/10/16 01:13:11;;;;;;;5.20;0.63;;;12.60;99.90;;;;;;4998836;28;20162;-86
2022/10/16 01:15:58;;;;;;;0.90;0.32;;;12.70;99.90;;;;;;5015381;28;20117;-87
2022/10/16 01:18:30;;;;;;;3.03;0.60;;;12.70;99.90;;;;;;5005823;28;20120;-86
2022/10/16 01:21:02;;;;;;;0.77;0.35;;;12.70;99.90;;;;;;4997618;28;20810;-86
2022/10/16 01:23:35;;;;;;;2.13;0.38;;;12.60;99.90;;;;;;5015220;28;20053;-85
2022/10/16 01:26:20;;;;;;;2.92;0.50;;;13.30;99.90;;;;;;5000177;28;20042;-85
2022/10/16 01:29:11;;;;;;;4.63;0.75;;;12.70;99.90;;;;;;5008343;28;20079;-85
2022/10/16 01:31:40;;;;;;;1.85;0.40;;;12.80;99.90;;;;;;5016349;28;20137;-86
2022/10/16 01:34:22;;;;;;;2.95;0.50;;;12.80;99.90;;;;;;4997208;28;20064;-85
2022/10/16 01:36:55;;;;;;;0.77;0.30;;;12.80;99.90;;;;;;4997595;28;20040;-86
2022/10/16 01:39:25;;;;;;;3.38;0.40;;;12.90;99.90;;;;;;5014734;28;20041;-85
2022/10/16 01:42:06;;;;;;;1.67;0.35;;;12.80;99.90;;;;;;5015634;28;20045;-86
2022/10/16 01:44:36;;;;;;;1.90;0.50;;;12.80;99.90;;;;;;5014771;28;20052;-85
2022/10/16 01:47:02;;;;;;;5.68;0.88;;;13.00;99.90;;;;;;5016783;28;20050;-85
2022/10/16 01:49:32;;;;;;;4.40;0.50;;;13.50;99.90;;;;;;4997115;28;20440;-86
2022/10/16 01:52:02;;;;;;;1.88;0.40;;;12.80;99.90;;;;;;4997447;28;20046;-85
2022/10/16 01:54:30;;;;;;;1.95;0.50;;;12.80;99.90;;;;;;4996824;28;20046;-85
2022/10/16 01:56:57;;;;;;;2.85;0.60;;;13.10;99.90;;;;;;5020556;28;20057;-86
2022/10/16 01:59:29;;;;;;;1.92;0.40;;;13.80;99.90;;;;;;5014412;28;20053;-86
2022/10/16 02:01:59;;;;;;;4.13;0.50;;;12.80;99.90;;;;;;5014294;28;20034;-86
2022/10/16 02:04:34;;;;;;;3.30;0.60;;;12.80;99.90;;;;;;5005152;28;20052;-86
2022/10/16 02:07:00;;;;;;;4.85;0.50;;;12.80;99.90;;;;;;5023362;28;20052;-86
2022/10/16 02:09:26;;;;;;;2.83;0.52;;;12.80;99.90;;;;;;5015058;28;20113;-86
2022/10/16 02:11:59;;;;;;;1.40;0.40;;;13.00;99.90;;;;;;4997216;28;20127;-85
2022/10/16 02:14:26;;;;;;;1.90;0.55;;;12.60;99.90;;;;;;4981023;28;20050;-86
2022/10/16 02:16:51;;;;;;;2.03;0.50;;;12.90;99.90;;;;;;5013940;28;20037;-87
2022/10/16 02:19:20;;;;;;;2.10;0.77;;;12.90;99.90;;;;;;5003158;28;20056;-85
2022/10/16 02:21:57;;;;;;;2.15;0.40;;;12.80;99.90;;;;;;5014236;28;20042;-85
2022/10/16 02:24:48;;;;;;;1.27;0.40;;;12.90;99.90;;;;;;5013475;28;20463;-85
2022/10/16 02:27:34;;;;;;;4.95;0.52;;;12.90;99.90;;;;;;5022457;28;20056;-86
2022/10/16 02:30:07;;;;;;;1.83;0.55;;;12.80;99.90;;;;;;5016374;28;20133;-86
2022/10/16 02:32:35;;;;;;;1.27;0.47;;;12.80;99.90;;;;;;4996392;28;20042;-86
2022/10/16 02:35:02;;;;;;;1.17;0.40;;;12.90;99.90;;;;;;5013751;28;20042;-86
2022/10/16 02:37:28;;;;;;;0.70;0.30;;;13.10;99.90;;;;;;5022224;28;20490;-87
2022/10/16 02:39:57;;;;;;;4.10;0.40;;;12.90;99.90;;;;;;4999427;28;20056;-86
2022/10/16 02:42:38;;;;;;;1.05;0.40;;;12.90;99.90;;;;;;5013060;28;20046;-89
2022/10/16 02:45:06;;;;;;;1.52;0.55;;;13.00;99.90;;;;;;4996338;28;20044;-86
2022/10/16 02:47:32;;;;;;;6.47;1.08;;;12.90;99.90;;;;;;4996363;28;20493;-86
2022/10/16 02:49:58;;;;;;;1.55;0.60;;;13.60;99.90;;;;;;5019146;28;20052;-88
2022/10/16 02:52:24;;;;;;;2.42;0.50;;;12.90;99.90;;;;;;5015588;28;20049;-86
2022/10/16 02:54:49;;;;;;;1.58;0.40;;;13.00;99.90;;;;;;5013013;28;20065;-86
2022/10/16 02:57:15;;;;;;;0.65;0.30;;;12.90;99.90;;;;;;5013135;28;20054;-85
2022/10/16 02:59:41;;;;;;;0.60;0.40;;;12.90;99.90;;;;;;5013845;28;20081;-86
2022/10/16 03:02:07;;;;;;;2.67;0.88;;;12.90;99.90;;;;;;5025180;28;20095;-88
2022/10/16 03:04:32;;;;;;;0.85;0.40;;;12.90;99.90;;;;;;5013129;28;20115;-86
2022/10/16 03:06:58;;;;;;;1.20;0.40;;;12.90;99.90;;;;;;4996006;28;20046;-86
2022/10/16 03:09:24;;;;;;;0.90;0.30;;;12.80;99.90;;;;;;5013807;28;20505;-86
2022/10/16 03:11:49;;;;;;;1.10;0.40;;;13.10;99.90;;;;;;5013921;28;20042;-86
2022/10/16 03:14:15;;;;;;;0.60;0.40;;;12.80;99.90;;;;;;4979979;28;20042;-86
2022/10/16 03:16:41;;;;;;;1.42;0.30;;;12.80;99.90;;;;;;5020981;28;20115;-90
2022/10/16 03:19:07;;;;;;;3.40;0.40;;;12.80;99.90;;;;;;4995899;28;20054;-86
2022/10/16 03:21:32;;;;;;;1.80;0.60;;;12.80;99.90;;;;;;5015566;28;20095;-86
2022/10/16 03:23:58;;;;;;;0.95;0.50;;;12.80;99.90;;;;;;4997040;28;20486;-86
2022/10/16 03:26:24;;;;;;;0.77;0.43;;;12.80;99.90;;;;;;4996085;28;20050;-86
2022/10/16 03:28:49;;;;;;;1.27;0.35;;;12.70;99.90;;;;;;4996134;28;20374;-86
2022/10/16 03:31:15;;;;;;;0.85;0.50;;;12.80;99.90;;;;;;5003268;28;20053;-87
2022/10/16 03:33:41;;;;;;;1.80;0.52;;;12.80;99.90;;;;;;5013452;28;20518;-86
2022/10/16 03:36:06;;;;;;;1.02;0.40;;;12.80;99.90;;;;;;5011853;28;20042;-87
2022/10/16 03:38:32;;;;;;;0.60;0.40;;;12.80;99.90;;;;;;4995997;28;20076;-86
2022/10/16 03:40:58;;;;;;;3.58;0.55;;;12.90;99.90;;;;;;5012652;28;20056;-86
2022/10/16 03:43:23;;;;;;;1.10;0.47;;;12.80;99.90;;;;;;4999919;28;20073;-86
2022/10/16 03:45:51;;;;;;;3.00;0.45;;;12.90;99.90;;;;;;5012489;28;20480;-86
2022/10/16 03:48:17;;;;;;;0.55;0.40;;;12.90;99.90;;;;;;4994819;28;20045;-85
2022/10/16 03:50:43;;;;;;;3.35;0.35;;;12.90;99.90;;;;;;5013865;28;20041;-86
2022/10/16 03:53:09;;;;;;;0.75;0.50;;;12.90;99.90;;;;;;4995324;28;20406;-87
2022/10/16 03:55:35;;;;;;;1.63;0.57;;;12.90;99.90;;;;;;5013611;28;20081;-86
2022/10/16 03:58:01;;;;;;;3.00;0.40;;;12.90;99.90;;;;;;4994530;28;20434;-86
2022/10/16 04:00:27;;;;;;;1.85;0.50;;;13.10;99.90;;;;;;5013232;28;20045;-85
2022/10/16 04:02:53;;;;;;;3.22;0.60;;;12.90;99.90;;;;;;5020360;28;20038;-85
2022/10/16 04:05:18;;;;;;;3.60;0.50;;;13.00;99.90;;;;;;5011979;28;20057;-86
2022/10/16 04:07:44;;;;;;;1.10;0.45;;;12.90;99.90;;;;;;5012876;28;20061;-86
2022/10/16 04:10:10;;;;;;;1.13;0.50;;;12.60;99.90;;;;;;4995391;28;20418;-86
2022/10/16 04:12:36;;;;;;;3.50;0.52;;;12.90;99.90;;;;;;4994904;28;20082;-85
2022/10/16 04:15:02;;;;;;;1.85;0.40;;;12.80;99.90;;;;;;5020289;28;20045;-86
2022/10/16 04:17:28;;;;;;;3.08;0.40;;;12.70;99.90;;;;;;4995146;28;20041;-86
2022/10/16 04:19:53;;;;;;;1.02;0.50;;;13.80;99.90;;;;;;4995564;28;20038;-86
2022/10/16 04:22:19;;;;;;;0.50;0.40;;;12.80;99.90;;;;;;4994955;28;20050;-89
2022/10/16 04:24:45;;;;;;;1.92;0.70;;;12.80;99.90;;;;;;4994406;28;20528;-86
2022/10/16 04:27:10;;;;;;;2.63;0.50;;;12.70;99.90;;;;;;5019462;28;20053;-86
2022/10/16 04:29:36;;;;;;;0.82;0.50;;;12.70;99.90;;;;;;5013036;28;20052;-86
2022/10/16 04:32:02;;;;;;;1.23;0.70;;;12.70;99.90;;;;;;5012263;28;20073;-86
2022/10/16 04:34:27;;;;;;;2.60;0.40;;;12.60;99.90;;;;;;4994829;28;20129;-85
2022/10/16 04:36:53;;;;;;;6.20;0.40;;;12.70;99.90;;;;;;4994570;28;20116;-86
2022/10/16 04:39:19;;;;;;;0.85;0.35;;;13.40;99.90;;;;;;5012732;28;20034;-85
2022/10/16 04:41:44;;;;;;;0.57;0.30;;;12.60;99.90;;;;;;4996712;28;20042;-86
2022/10/16 04:44:10;;;;;;;1.50;0.35;;;12.70;99.90;;;;;;4995273;28;20494;-87
2022/10/16 04:46:36;;;;;;;0.80;0.40;;;12.50;99.90;;;;;;5012701;28;20393;-86
2022/10/16 04:49:01;;;;;;;2.33;0.90;;;12.70;99.90;;;;;;5015644;28;20157;-86
2022/10/16 04:51:27;;;;;;;2.20;0.30;;;13.00;99.90;;;;;;4998503;28;20084;-86
2022/10/16 04:53:54;;;;;;;2.72;0.60;;;12.60;99.90;;;;;;5015475;28;20045;-87
2022/10/16 04:56:21;;;;;;;0.80;0.50;;;12.70;99.90;;;;;;5015256;28;20168;-86
2022/10/16 04:58:47;;;;;;;0.65;0.40;;;12.80;99.90;;;;;;4982045;28;20410;-86
2022/10/16 05:01:13;;;;;;;1.95;0.60;;;12.60;99.90;;;;;;4998188;28;20046;-88
2022/10/16 05:03:38;;;;;;;1.58;0.50;;;12.70;99.90;;;;;;5014005;28;20038;-86
2022/10/16 05:06:06;;;;;;;0.98;0.50;;;12.80;99.90;;;;;;4998148;28;20051;-87
2022/10/16 05:08:31;;;;;;;3.45;0.80;;;12.70;99.90;;;;;;5005400;28;20054;-87
2022/10/16 05:10:57;;;;;;;1.73;0.40;;;12.70;99.90;;;;;;5015861;28;20402;-91
2022/10/16 05:13:23;;;;;;;0.93;0.50;;;12.70;99.90;;;;;;5018901;28;20080;-86
2022/10/16 05:15:49;;;;;;;0.57;0.40;;;12.70;99.90;;;;;;5015412;28;20042;-86
2022/10/16 05:18:15;;;;;;;0.80;0.40;;;12.80;99.90;;;;;;5015084;28;20034;-85
2022/10/16 05:20:41;;;;;;;0.73;0.40;;;12.80;99.90;;;;;;5015189;28;20629;-87
2022/10/16 05:23:09;;;;;;;1.52;0.50;;;12.80;99.90;;;;;;4998107;28;20049;-86
2022/10/16 05:25:36;;;;;;;1.38;0.60;;;12.90;99.90;;;;;;5014689;28;20482;-85
2022/10/16 05:28:02;;;;;;;1.10;0.50;;;12.80;99.90;;;;;;5017521;28;20050;-86
2022/10/16 05:30:28;;;;;;;0.65;0.47;;;12.80;99.90;;;;;;5016217;28;20088;-86
2022/10/16 05:32:53;;;;;;;3.15;0.60;;;12.80;99.90;;;;;;5015647;28;20073;-85
2022/10/16 05:35:20;;;;;;;2.13;0.70;;;12.80;99.90;;;;;;5022698;28;20503;-86
2022/10/16 05:37:46;;;;;;;3.45;0.70;;;13.00;99.90;;;;;;4997037;28;20521;-86
2022/10/16 05:40:13;;;;;;;1.15;0.50;;;12.80;99.90;;;;;;4998063;28;20085;-86
2022/10/16 05:42:39;;;;;;;1.00;0.40;;;12.80;99.90;;;;;;5015295;28;20038;-85
2022/10/16 05:45:08;;;;;;;2.22;0.70;;;13.40;99.90;;;;;;5020301;28;20042;-86
2022/10/16 05:47:33;;;;;;;6.32;0.70;;;12.80;99.90;;;;;;4997101;28;20120;-85
2022/10/16 05:49:59;;;;;;;0.85;0.60;;;13.40;99.90;;;;;;5016195;28;20121;-85
2022/10/16 05:52:26;;;;;;;2.70;0.55;;;13.20;99.90;;;;;;5014994;28;20042;-86
2022/10/16 05:54:51;;;;;;;3.47;0.75;;;12.80;99.90;;;;;;5015193;28;20058;-85
2022/10/16 05:57:17;;;;;;;3.42;0.60;;;12.80;99.90;;;;;;5021130;28;20045;-86
2022/10/16 05:59:43;;;;;;;3.10;0.52;;;13.10;99.90;;;;;;5006852;28;20140;-84
2022/10/16 06:02:16;;;;;;;1.55;0.50;;;12.80;99.90;;;;;;5011631;28;20514;-85
2022/10/16 06:04:42;;;;;;;2.35;0.60;;;13.40;99.90;;;;;;5017672;28;20493;-88
2022/10/16 06:07:08;;;;;;;3.63;0.60;;;12.90;99.90;;;;;;4996898;28;20085;-91
2022/10/16 06:09:33;;;;;;;0.95;0.45;;;12.70;99.90;;;;;;5024640;28;20044;-87
2022/10/16 06:11:59;;;;;;;3.15;0.80;;;12.70;99.90;;;;;;5023536;28;20042;-88
2022/10/16 06:14:25;;;;;;;1.90;0.98;;;12.70;99.90;;;;;;5015083;28;20045;-88
2022/10/16 06:16:51;;;;;;;3.47;0.50;;;12.70;99.90;;;;;;4997844;28;20030;-91
2022/10/16 06:19:17;;;;;;;2.47;0.50;;;12.70;99.90;;;;;;5015588;28;20422;-89
2022/10/16 06:21:43;;;;;;;2.45;0.60;;;12.70;99.90;;;;;;5014754;28;20057;-88
2022/10/16 06:24:09;;;;;;;1.27;0.70;;;13.20;99.90;;;;;;5000570;28;20061;-90
2022/10/16 06:26:35;;;;;;;5.00;0.70;;;12.80;99.90;;;;;;5002123;28;20041;-91
2022/10/16 06:29:01;;;;;;;2.80;0.70;;;12.60;99.90;;;;;;5015325;28;20038;-92
2022/10/16 06:31:30;;;;;;;0.90;0.50;;;12.60;99.90;;;;;;5022938;28;20530;-91
2022/10/16 06:33:57;;;;;;;1.25;0.60;;;13.50;99.90;;;;;;5014238;28;20049;-90
2022/10/16 06:36:24;;;;;;;1.58;0.75;;;12.70;99.90;;;;;;5018827;28;20049;-87
2022/10/16 06:38:49;;;;;;;2.88;0.70;;;12.70;99.90;;;;;;5009766;28;20112;-86
2022/10/16 06:41:18;;;;;;;1.08;0.55;;;12.70;99.90;;;;;;5002534;28;20058;-86
2022/10/16 06:43:47;;;;;;;1.75;0.70;;;12.80;99.90;;;;;;5000392;28;20386;-94
2022/10/16 06:46:15;;;;;;;5.78;0.80;;;12.80;99.90;;;;;;5014250;28;20096;-92
2022/10/16 06:48:41;;;;;;;2.20;0.57;;;12.90;99.90;;;;;;4996911;28;20070;-91
2022/10/16 06:51:10;;;;;;;1.52;0.70;;;12.80;99.90;;;;;;5014330;28;20077;-89
2022/10/16 06:53:39;;;;;;;1.60;0.70;;;12.80;99.90;;;;;;5012623;28;20042;-90
2022/10/16 06:56:09;;;;;;;3.95;0.80;;;13.00;99.90;;;;;;4996355;28;20058;-90
2022/10/16 06:58:35;;;;;;;1.45;0.73;;;12.80;99.90;;;;;;5013942;28;20045;-91
2022/10/16 07:01:01;;;;;;;1.52;0.63;;;12.90;99.90;;;;;;4997215;28;20375;-92
2022/10/16 07:03:26;;;;;;;1.45;0.70;;;12.90;99.90;;;;;;4996362;28;20069;-91
2022/10/16 07:05:52;;;;;;;2.60;0.63;;;13.30;99.90;;;;;;5016100;28;20045;-92
2022/10/16 07:08:18;;;;;;;1.00;0.47;;;13.00;99.90;;;;;;5015239;28;20042;-91
2022/10/16 07:10:43;;;;;;;5.30;0.60;;;12.90;99.90;;;;;;5015038;28;20044;-92
2022/10/16 07:13:12;;;;;;;2.20;0.70;;;13.00;99.90;;;;;;4996675;28;20129;-88
2022/10/16 07:15:38;;;;;;;1.60;0.50;;;13.00;99.90;;;;;;4997402;28;20052;-91
2022/10/16 07:18:17;;;;;;;;;;;;;;;;;;;;;
2022/10/16 07:21:08;;;;;;;2.65;0.80;;;13.10;99.90;;;;;;5014021;28;20546;-88
2022/10/16 07:23:34;;;;;;;4.35;0.70;;;13.20;99.90;;;;;;4995867;28;20050;-91
2022/10/16 07:26:00;;;;;;;6.80;0.70;;;13.20;99.90;;;;;;5014341;28;20132;-93
2022/10/16 07:28:26;;;;;;;4.40;1.00;;;13.20;99.90;;;;;;5015544;28;20120;-90
2022/10/16 07:30:51;;;;;;;3.38;0.50;;;13.30;99.90;;;;;;4996360;28;20110;-93
2022/10/16 07:33:17;;;;;;;3.60;0.65;;;13.30;99.90;;;;;;5002584;28;20137;-91
2022/10/16 07:35:51;;;;;;;2.55;0.60;;;13.40;99.90;;;;;;5016823;28;20387;-90
2022/10/16 07:38:16;;;;;;;4.25;0.68;;;13.30;99.90;;;;;;5003135;28;20453;-90
2022/10/16 07:40:42;;;;;;;2.92;0.60;;;13.30;99.90;;;;;;4996390;28;20050;-90
2022/10/16 07:43:08;;;;;;;2.08;0.43;;;14.10;99.90;;;;;;5013428;28;20096;-91
2022/10/16 07:45:34;;;;;;;1.77;0.40;;;13.40;99.90;;;;;;5014316;28;20061;-91
2022/10/16 07:47:59;;;;;;;4.72;0.50;;;13.40;99.90;;;;;;5013613;28;20425;-93
2022/10/16 07:50:25;;;;;;;4.80;0.50;;;13.40;99.90;;;;;;5013876;28;20048;-91
2022/10/16 07:52:51;;;;;;;4.53;0.60;;;13.50;99.90;;;;;;5003696;28;20390;-90
2022/10/16 07:55:17;;;;;;;2.97;0.77;;;13.50;99.90;;;;;;5014370;28;20038;-89
2022/10/16 07:57:44;;;;;;;4.18;0.68;;;13.60;99.90;;;;;;5023338;28;20367;-88
2022/10/16 08:00:13;;;;;;;6.22;0.88;;;13.60;99.90;;;;;;5001453;28;20057;-90
2022/10/16 08:02:40;;;;;;;2.90;0.55;;;13.60;99.90;;;;;;4995887;28;20048;-91
2022/10/16 08:05:06;;;;;;;1.75;0.50;;;13.50;99.90;;;;;;5013090;28;20505;-93
2022/10/16 08:07:32;;;;;;;4.28;0.68;;;13.40;99.90;;;;;;5014428;28;20042;-93
2022/10/16 08:09:58;;;;;;;5.75;0.73;;;13.40;99.90;;;;;;5002917;28;20048;-92
2022/10/16 08:12:27;;;;;;;1.88;0.63;;;13.40;99.90;;;;;;5013139;28;20045;-93
2022/10/16 08:14:53;;;;;;;5.50;0.70;;;13.60;99.90;;;;;;5012799;28;20064;-89
2022/10/16 08:17:18;;;;;;;2.08;0.68;;;13.80;99.90;;;;;;5014898;28;20465;-92
2022/10/16 08:19:48;;;;;;;4.68;1.02;;;13.70;99.90;;;;;;4994966;28;20046;-90
2022/10/16 08:22:17;;;;;;;2.92;0.77;;;13.80;99.90;;;;;;4996964;28;20512;-90
2022/10/16 08:24:42;;;;;;;2.17;0.85;;;13.80;99.90;;;;;;5016258;28;20045;-88
2022/10/16 08:27:08;;;;;;;1.65;0.70;;;13.90;99.90;;;;;;4999803;28;20119;-89
2022/10/16 08:29:34;;;;;;;3.42;0.80;;;14.10;99.90;;;;;;4999114;28;20045;-87
2022/10/16 08:32:00;;;;;;;2.35;0.90;;;14.10;99.90;;;;;;4998822;28;20517;-87
2022/10/16 08:34:26;;;;;;;3.78;0.60;;;14.40;99.90;;;;;;5016509;28;20042;-86
2022/10/16 08:36:54;;;;;;;4.07;0.70;;;14.30;99.90;;;;;;5023520;28;20092;-88
2022/10/16 08:39:20;;;;;;;2.42;0.85;;;14.40;99.90;;;;;;4998468;28;20073;-87
2022/10/16 08:42:04;;;;;;;1.50;0.50;;;14.50;99.90;;;;;;4998607;28;20077;-91
2022/10/16 08:45:02;;;;;;;3.72;0.68;;;14.60;99.90;;;;;;5016200;28;20111;-88
2022/10/16 08:47:49;;;;;;;0.90;0.50;;;14.60;99.90;;;;;;5018510;28;20135;-91
2022/10/16 08:50:33;;;;;;;;;;;14.50;99.90;;;;;;5016858;28;20053;-92
2022/10/16 08:52:59;;;;;;;1.33;0.50;;;14.50;99.90;;;;;;4998263;28;19922;-90
2022/10/16 08:55:46;;;;;;;3.10;0.70;;;14.60;99.90;;;;;;4998521;28;20044;-91
2022/10/16 08:58:17;;;;;;;2.15;0.57;;;14.50;99.90;;;;;;5020475;28;20140;-89
2022/10/16 09:00:47;;;;;;;1.90;0.68;;;14.70;99.90;;;;;;5014674;28;20053;-89
2022/10/16 09:03:37;;;;;;;5.78;0.75;;;14.80;99.90;;;;;;4997660;28;20509;-88
2022/10/16 09:06:11;;;;;;;3.00;0.70;;;14.90;99.90;;;;;;5015103;28;20502;-90
2022/10/16 09:08:51;;;;;;;2.83;0.65;;;14.90;99.90;;;;;;4998046;28;20498;-91
2022/10/16 09:12:02;;;;;;;3.60;0.47;;;14.90;99.90;;;;;;4988844;28;20042;-91
2022/10/16 09:14:51;;;;;;;2.15;0.75;;;14.90;99.90;;;;;;4998471;28;20054;-90
2022/10/16 09:17:23;;;;;;;2.17;0.60;;;14.80;99.90;;;;;;5002984;28;20046;-90
2022/10/16 09:20:14;;;;;;;2.78;0.47;;;14.80;99.90;;;;;;5015434;28;20463;-90
2022/10/16 09:22:40;;;;;;;7.20;0.90;;;14.80;99.90;;;;;;4900683;29;20052;-91
2022/10/16 09:25:20;;;;;;;2.28;0.40;;;15.00;99.90;;;;;;4915793;29;20052;-88
2022/10/16 09:27:48;;;;;;;4.47;0.68;;;15.00;99.90;;;;;;4906706;29;20048;-90
2022/10/16 09:30:17;;;;;;;3.03;0.57;;;15.20;99.90;;;;;;4916369;29;20118;-88
2022/10/16 09:32:45;;;;;;;4.78;0.65;;;15.30;99.90;;;;;;4884515;29;20200;-88
2022/10/16 09:35:17;;;;;;;4.20;0.40;;;15.30;99.90;;;;;;4900585;29;20497;-89
2022/10/16 09:37:46;;;;;;;5.13;0.50;;;15.40;99.90;;;;;;4902017;29;20126;-89
2022/10/16 09:40:23;;;;;;;3.67;0.50;;;15.50;99.90;;;;;;4915474;29;20052;-88
2022/10/16 09:42:49;;;;;;;6.05;1.70;;;15.60;99.90;;;;;;4916206;29;20452;-88
2022/10/16 09:45:23;;;;;;;2.15;0.40;;;15.60;99.90;;;;;;4915843;29;20040;-89
2022/10/16 09:47:49;;;;;;;5.70;0.57;;;15.70;99.90;;;;;;4920007;29;20444;-88
2022/10/16 09:50:26;;;;;;;4.38;0.50;;;15.70;99.90;;;;;;4884642;29;20103;-87
2022/10/16 09:53:18;;;;;;;2.35;0.52;;;15.90;99.90;;;;;;4900331;29;20268;-89
2022/10/16 09:55:52;;;;;;;1.67;0.30;;;16.00;99.90;;;;;;4883617;29;20144;-90
2022/10/16 09:58:21;;;;;;;1.63;0.40;;;16.00;99.90;;;;;;4879783;29;20065;-89
2022/10/16 10:00:53;;;;;;;4.13;0.43;;;16.20;99.90;;;;;;4955107;28;20113;-89
2022/10/16 10:03:38;;;;;;;3.65;0.57;;;16.20;99.90;;;;;;4961997;28;20566;-91
2022/10/16 10:06:25;;;;;;;3.88;0.40;;;16.30;99.90;;;;;;4945095;28;20132;-88
2022/10/16 10:08:59;;;;;;;4.30;0.50;;;16.40;99.90;;;;;;4957245;28;20074;-88
2022/10/16 10:11:37;;;;;;;6.80;0.60;;;16.40;99.90;;;;;;4956274;28;20050;-90
2022/10/16 10:14:05;;;;;;;4.30;0.50;;;16.50;99.90;;;;;;4964286;28;20467;-87
2022/10/16 10:16:31;;;;;;;7.20;0.50;;;16.60;99.90;;;;;;4962452;28;20051;-85
2022/10/16 10:19:00;;;;;;;4.30;0.50;;;16.40;99.90;;;;;;4958522;28;20043;-83
2022/10/16 10:21:26;;;;;;;5.50;0.60;;;16.70;99.90;;;;;;4946784;28;20062;-84
2022/10/16 10:23:58;;;;;;;3.95;0.47;;;16.70;99.90;;;;;;4963884;28;20043;-85
2022/10/16 10:26:30;;;;;;;4.22;0.40;;;16.60;99.90;;;;;;4944653;28;20097;-85
2022/10/16 10:29:10;;;;;;;2.85;0.52;;;16.60;99.90;;;;;;4935528;29;20092;-84
2022/10/16 10:31:49;;;;;;;6.75;0.68;;;16.60;99.90;;;;;;4938212;28;20051;-85
2022/10/16 10:34:33;;;;;;;4.70;0.93;;;16.60;99.90;;;;;;4996200;28;20402;-84
2022/10/16 10:37:23;;;;;;;4.13;0.43;;;16.60;99.90;;;;;;5014452;28;20453;-85
2022/10/16 10:40:21;;;;;;;5.30;0.70;;;16.70;99.90;;;;;;5016064;28;20045;-84
2022/10/16 10:43:21;;;;;;;4.82;0.73;;;16.80;99.90;;;;;;4996065;28;20053;-85
2022/10/16 10:45:49;;;;;;;7.85;0.60;;;17.00;99.90;;;;;;4995724;28;20045;-85
2022/10/16 10:48:19;;;;;;;8.57;0.75;;;17.10;99.90;;;;;;5012050;28;20050;-84
2022/10/16 10:51:03;;;;;;;7.15;0.65;;;16.90;99.90;;;;;;4996508;28;20049;-85
2022/10/16 10:54:03;;;;;;;5.25;1.33;;;17.10;99.90;;;;;;5016698;28;20065;-86
2022/10/16 10:56:56;;;;;;;3.65;0.70;;;17.10;99.90;;;;;;4996015;28;20046;-85
2022/10/16 10:59:32;;;;;;;8.85;0.50;;;17.10;99.90;;;;;;4996683;28;20064;-83
2022/10/16 11:02:24;;;;;;;2.55;0.60;;;17.10;99.90;;;;;;5000508;28;20056;-80
2022/10/16 11:05:02;;;;;;;5.45;0.40;;;17.10;99.90;;;;;;4939971;29;20055;-85
2022/10/16 11:07:33;;;;;;;5.05;0.60;;;17.10;99.90;;;;;;4933709;29;20528;-82
2022/10/16 11:10:15;;;;;;;1.67;0.30;;;17.10;99.90;;;;;;4934278;29;20107;-84
2022/10/16 11:12:49;;;;;;;8.15;0.70;;;17.20;99.90;;;;;;4941838;29;20470;-83
2022/10/16 11:15:21;;;;;;;4.40;0.50;;;17.30;99.90;;;;;;4931694;29;20059;-83
2022/10/16 11:17:58;;;;;;;1.27;0.22;;;17.40;99.90;;;;;;4933237;29;20733;-84
2022/10/16 11:20:32;;;;;;;3.38;0.40;;;17.50;99.90;;;;;;4918107;29;20056;-84
2022/10/16 11:23:10;;;;;;;4.78;0.80;;;17.60;99.90;;;;;;4901497;29;20084;-84
2022/10/16 11:25:36;;;;;;;2.33;0.40;;;17.70;99.90;;;;;;4933276;29;20051;-84
2022/10/16 11:28:27;;;;;;;11.30;0.73;;;17.70;99.90;;;;;;4917558;28;20044;-84
2022/10/16 11:31:00;;;;;;;3.38;0.30;;;17.70;99.90;;;;;;4933645;29;20211;-83
2022/10/16 11:33:31;;;;;;;7.82;0.50;;;17.60;99.90;;;;;;4917241;29;20043;-84
2022/10/16 11:36:06;;;;;;;2.75;0.40;;;17.50;99.90;;;;;;4933485;29;20047;-84
2022/10/16 11:38:58;;;;;;;2.83;0.30;;;17.30;99.90;;;;;;4919647;29;20040;-84
2022/10/16 11:41:32;;;;;;;10.77;0.73;;;17.20;99.90;;;;;;4943053;28;20057;-84
2022/10/16 11:44:23;;;;;;;1.80;0.38;;;17.10;99.90;;;;;;5003014;28;20060;-83
2022/10/16 11:47:01;;;;;;;3.35;0.60;;;17.10;99.90;;;;;;4995019;28;20054;-85
2022/10/16 11:49:32;;;;;;;4.35;0.93;;;17.10;99.90;;;;;;5013001;28;20092;-85
2022/10/16 11:52:04;;;;;;;4.75;0.60;;;17.00;99.90;;;;;;5011369;28;20111;-84
2022/10/16 11:54:54;;;;;;;6.18;0.70;;;16.90;99.90;;;;;;5013233;28;20049;-86
2022/10/16 11:57:26;;;;;;;5.05;0.63;;;16.70;99.90;;;;;;5014513;28;20394;-85
2022/10/16 12:00:10;;;;;;;5.15;0.57;;;16.70;99.90;;;;;;5017364;28;20056;-84
2022/10/16 12:02:41;;;;;;;3.50;0.40;;;16.60;99.90;;;;;;4999045;28;20072;-85
2022/10/16 12:05:15;;;;;;;4.82;0.30;;;16.60;99.90;;;;;;5016467;28;20511;-84
2022/10/16 12:07:52;;;;;;;3.83;0.40;;;16.70;99.90;;;;;;5017326;28;20046;-83
2022/10/16 12:10:27;;;;;;;2.65;0.40;;;16.80;99.90;;;;;;5017516;28;20053;-85
2022/10/16 12:12:53;;;;;;;4.85;0.43;;;17.00;99.90;;;;;;4983883;28;20045;-91
2022/10/16 12:15:19;;;;;;;8.10;0.73;;;17.30;99.90;;;;;;4991637;28;20045;-89
2022/10/16 12:17:45;;;;;;;2.30;0.40;;;17.50;99.90;;;;;;5032070;28;20053;-85
2022/10/16 12:20:16;;;;;;;4.22;0.40;;;17.70;99.90;;;;;;5017818;28;20050;-90
2022/10/16 12:22:50;;;;;;;3.10;0.50;;;17.90;99.90;;;;;;4999989;28;20070;-90
2022/10/16 12:25:28;;;;;;;2.10;0.25;;;18.00;99.90;;;;;;5017830;28;20121;-89
2022/10/16 12:28:05;;;;;;;5.00;0.50;;;18.10;99.90;;;;;;5017900;28;20101;-90
2022/10/16 12:30:34;;;;;;;2.92;0.60;;;18.20;99.90;;;;;;5019171;28;20141;-88
2022/10/16 12:33:06;;;;;;;4.18;1.25;;;18.20;99.90;;;;;;5018114;28;20499;-90
2022/10/16 12:35:44;;;;;;;4.22;0.52;;;17.90;99.90;;;;;;5017519;28;20044;-87
2022/10/16 12:38:21;;;;;;;9.75;1.15;;;17.80;99.90;;;;;;4999790;28;20049;-87
2022/10/16 12:41:08;;;;;;;7.53;0.50;;;17.60;99.90;;;;;;5017519;28;20072;-90
2022/10/16 12:43:45;;;;;;;2.95;0.30;;;17.40;99.90;;;;;;4999618;28;20041;-90
2022/10/16 12:46:13;;;;;;;1.48;0.30;;;17.40;99.90;;;;;;5016962;28;20106;-91
2022/10/16 12:48:43;;;;;;;3.72;0.40;;;17.30;99.90;;;;;;5016665;28;20049;-91
2022/10/16 12:51:27;;;;;;;0.70;0.20;;;17.10;99.90;;;;;;5017145;28;20037;-86
2022/10/16 12:54:20;;;;;;;2.85;0.40;;;17.00;99.90;;;;;;5016434;28;20077;-87
2022/10/16 12:56:58;;;;;;;1.90;0.20;;;16.90;99.90;;;;;;4999792;28;20057;-88
2022/10/16 12:59:42;;;;;;;5.50;0.30;;;16.80;99.90;;;;;;5000674;28;20060;-91
2022/10/16 13:02:36;;;;;;;1.58;0.25;;;16.60;99.90;;;;;;5016818;28;20050;-90
2022/10/16 13:05:22;;;;;;;4.20;0.45;;;16.50;99.90;;;;;;5016561;28;20053;-91
2022/10/16 13:07:51;;;;;;;2.75;0.25;;;16.50;99.90;;;;;;5015886;28;20058;-89